Date,TemperatureHighF,TemperatureAvgF,TemperatureLowF,DewpointHighF,DewpointAvgF,DewpointLowF,HumidityHigh,HumidityAvg,HumidityLow,PressureMaxIn,PressureMinIn,WindSpeedMaxMPH,WindSpeedAvgMPH,GustSpeedMaxMPH,PrecipitationSumIn
2013-1-1,76.5,73.2,70.0,63.0,59.6,56.0,72,63,57,30.21,30.07,21,8,21,0.00
2013-1-2,76.7,71.4,65.0,67.0,63.3,58.0,83,76,65,30.11,30.00,14,4,14,0.00
2013-1-3,77.3,73.0,67.7,68.0,65.7,63.0,87,79,69,30.15,30.04,14,5,15,0.00
2013-1-4,77.7,71.9,67.4,70.0,66.9,64.0,91,85,75,30.24,30.11,11,3,12,0.00
2013-1-5,75.0,70.3,67.1,69.0,66.5,64.0,92,88,78,30.26,30.17,11,3,11,0.12
2013-1-6,77.6,74.9,68.7,72.0,68.8,66.0,94,82,77,30.21,30.07,16,6,16,0.01
2013-1-7,75.7,72.1,69.6,70.0,67.6,66.0,91,86,77,30.18,30.08,20,5,20,0.09
2013-1-8,77.7,75.7,70.9,72.0,69.7,65.0,88,82,77,30.22,30.09,23,12,23,0.69
2013-1-9,78.1,77.0,74.8,72.0,69.9,68.0,86,79,75,30.29,30.17,25,14,25,0.02
2013-1-10,77.2,76.1,75.3,69.0,66.4,62.0,79,73,62,30.31,30.20,27,17,27,2.77
2013-1-11,76.3,75.4,73.8,69.0,67.1,64.0,82,76,69,30.27,30.17,24,15,25,0.92
2013-1-12,77.4,75.5,74.2,67.0,65.5,63.0,75,72,65,30.20,30.10,22,12,22,0.00
2013-1-13,77.1,75.3,73.9,68.0,64.7,60.0,79,70,60,30.14,30.08,24,13,24,0.00
2013-1-14,76.8,75.2,73.9,67.0,64.3,61.0,76,70,64,30.19,30.13,20,10,20,0.00
2013-1-15,76.3,74.9,73.5,67.0,65.3,62.0,78,72,66,30.16,30.06,19,11,20,0.01
2013-1-16,77.6,75.1,69.5,68.0,65.7,62.0,82,73,63,30.13,30.03,15,7,15,0.00
2013-1-17,78.0,71.3,61.4,71.0,65.0,52.0,90,81,72,30.11,29.98,24,8,24,0.23
2013-1-18,71.7,63.2,52.0,60.0,52.6,44.0,80,69,57,30.25,30.10,24,8,24,0.00
2013-1-19,73.6,70.3,66.9,67.0,62.4,56.0,93,77,59,30.22,30.11,22,7,22,0.50
2013-1-20,76.1,71.0,65.2,69.0,65.4,63.0,95,84,72,30.16,30.02,18,4,18,0.04
2013-1-21,77.3,72.6,66.8,69.0,65.7,63.0,90,79,72,30.09,29.97,16,6,17,0.04
2013-1-22,72.7,68.2,62.8,63.0,57.9,51.0,91,71,55,30.22,30.01,23,8,23,0.00
2013-1-23,72.8,67.9,62.3,58.0,54.0,50.0,75,62,46,30.30,30.20,18,6,18,0.00
2013-1-24,71.9,66.9,61.8,56.0,51.5,43.0,78,59,42,30.30,30.21,12,5,13,0.00
2013-1-25,74.0,67.2,60.2,60.0,54.5,49.0,76,64,54,30.30,30.18,9,4,10,0.00
2013-1-26,74.3,69.2,61.5,60.0,55.8,48.0,79,63,47,30.27,30.17,12,5,12,0.00
2013-1-27,76.0,71.3,65.2,64.0,58.8,55.0,80,66,51,30.30,30.21,21,7,22,0.00
2013-1-28,76.2,74.2,72.7,68.0,63.9,61.0,80,71,65,30.34,30.24,26,14,26,0.00
2013-1-29,75.8,74.5,72.4,70.0,66.7,63.0,88,77,70,30.25,30.13,20,12,21,0.03
2013-1-30,76.8,74.3,72.6,68.0,65.0,62.0,82,73,68,30.13,29.98,22,11,23,0.00
2013-1-31,74.3,66.3,59.2,69.0,56.8,40.0,90,73,45,30.20,29.96,20,5,20,0.00
2013-2-1,70.8,62.9,52.6,56.0,48.1,39.0,68,59,49,30.30,30.17,16,7,19,0.00
2013-2-2,70.4,65.1,57.2,54.0,47.2,35.0,69,53,42,30.29,30.12,18,6,18,0.00
2013-2-3,70.1,64.4,58.5,55.0,48.2,38.0,79,58,32,30.18,30.08,14,4,14,0.00
2013-2-4,71.2,63.1,51.4,56.0,46.8,38.0,72,56,36,30.17,30.04,13,4,13,0.00
2013-2-5,73.7,68.1,58.9,63.0,56.1,49.0,77,66,50,30.11,30.01,12,5,14,0.00
2013-2-6,76.2,71.2,64.0,65.0,61.7,57.0,88,73,56,30.13,30.03,20,8,20,0.06
2013-2-7,76.2,73.9,71.3,67.0,63.8,60.0,75,71,65,30.10,29.93,19,8,19,0.00
2013-2-8,80.4,73.9,69.3,68.0,64.7,57.0,87,74,45,30.06,29.92,19,6,19,0.00
2013-2-9,76.7,72.4,66.7,69.0,63.1,58.0,89,73,58,30.20,30.04,23,8,24,0.13
2013-2-10,73.0,71.7,68.6,64.0,61.0,58.0,82,69,64,30.29,30.18,28,17,28,1.01
2013-2-11,74.8,73.4,71.7,65.0,62.3,59.0,74,69,63,30.25,30.12,19,11,20,0.00
2013-2-12,77.5,74.3,68.9,69.0,66.2,62.0,84,77,69,30.15,30.00,20,7,21,0.00
2013-2-13,78.2,75.2,71.3,72.0,69.0,66.0,89,82,71,30.05,29.91,19,6,20,0.00
2013-2-14,75.0,69.7,63.9,70.0,65.9,60.0,93,88,81,30.04,29.89,20,5,25,2.05
2013-2-15,72.6,67.5,64.8,65.0,63.4,62.0,92,87,75,30.04,29.94,16,5,16,0.40
2013-2-16,69.7,64.4,54.9,62.0,54.2,41.0,93,71,44,30.10,29.89,27,9,27,0.27
2013-2-17,55.7,51.0,45.0,43.0,29.9,18.0,65,47,28,30.33,30.10,22,8,25,0.00
2013-2-18,68.9,59.1,48.2,58.0,44.3,30.0,68,58,51,30.38,30.22,28,13,28,0.15
2013-2-19,74.0,71.1,65.2,65.0,59.4,51.0,85,67,52,30.22,30.09,26,10,27,0.00
2013-2-20,74.8,70.5,64.4,66.0,63.5,58.0,91,79,64,30.14,30.02,12,5,13,0.00
2013-2-21,76.9,74.5,72.5,68.0,65.6,63.0,80,74,67,30.12,30.00,14,8,14,0.00
2013-2-22,77.0,75.5,74.0,70.0,68.5,65.0,83,79,73,30.12,30.02,22,12,23,0.00
2013-2-23,78.0,75.4,71.2,72.0,69.1,67.0,89,81,73,30.05,29.92,22,9,22,0.39
2013-2-24,82.6,75.4,72.0,73.0,70.4,67.0,93,85,62,30.01,29.90,14,5,15,0.00
2013-2-25,79.0,75.6,71.8,73.0,70.1,67.0,88,84,77,29.94,29.83,17,6,19,0.00
2013-2-26,80.7,77.5,75.7,73.0,70.5,68.0,87,80,68,29.90,29.81,19,7,22,0.00
2013-2-27,77.0,69.6,62.7,72.0,62.7,57.0,93,80,58,29.98,29.87,15,5,15,0.72
2013-2-28,69.3,63.9,59.0,63.0,51.5,40.0,91,66,37,30.04,29.91,14,5,14,0.00
2013-3-1,64.2,61.7,58.6,55.0,48.0,43.0,73,61,51,30.00,29.90,15,6,15,0.01
2013-3-2,63.5,57.0,53.0,48.0,40.1,33.0,68,54,39,30.06,29.97,35,9,35,0.21
2013-3-3,58.8,53.2,47.4,41.0,38.8,35.0,70,59,46,30.17,29.99,25,8,27,0.01
2013-3-4,62.1,53.5,44.6,47.0,37.3,26.0,74,56,31,30.26,30.14,18,6,20,0.00
2013-3-5,70.2,63.7,54.3,57.0,51.5,42.0,74,65,56,30.20,30.09,16,5,16,0.00
2013-3-6,73.4,64.3,53.4,61.0,49.5,29.0,89,63,26,30.11,29.94,30,11,30,0.25
2013-3-7,67.8,58.1,48.8,55.0,44.8,35.0,81,62,45,30.20,30.09,17,5,19,0.00
2013-3-8,69.8,63.3,55.3,53.0,50.1,43.0,82,64,42,30.23,30.12,11,4,12,0.00
2013-3-9,72.1,65.8,57.8,57.0,53.0,50.0,80,64,53,30.21,30.11,17,6,19,0.00
2013-3-10,71.5,69.4,67.6,61.0,55.6,51.0,72,62,55,30.18,30.08,24,14,25,0.36
2013-3-11,73.7,71.3,69.2,63.0,59.7,56.0,72,67,59,30.11,29.96,27,14,27,1.03
2013-3-12,77.3,73.7,70.3,69.0,64.5,61.0,81,73,63,30.03,29.92,24,9,24,0.00
2013-3-13,70.5,65.0,57.2,65.0,55.0,46.0,89,71,47,30.13,29.98,16,6,17,0.00
2013-3-14,65.7,60.6,55.7,53.0,47.3,41.0,78,63,44,30.23,30.10,16,6,18,0.00
2013-3-15,69.0,62.2,54.3,54.0,49.6,44.0,75,64,53,30.27,30.16,11,5,15,0.00
2013-3-16,71.0,65.5,58.4,55.0,52.4,48.0,81,64,46,30.21,30.10,14,5,16,0.00
2013-3-17,72.5,68.5,62.1,61.0,56.9,53.0,77,67,58,30.17,30.04,17,7,17,0.00
2013-3-18,75.5,72.4,66.7,69.0,64.2,60.0,91,76,67,30.08,29.97,20,9,20,0.31
2013-3-19,75.8,71.9,69.5,68.0,65.9,62.0,89,82,69,30.02,29.84,17,4,18,0.00
2013-3-20,77.7,71.7,66.4,72.0,64.9,53.0,93,80,45,30.00,29.82,23,5,25,0.01
2013-3-21,69.5,65.9,61.5,61.0,53.4,45.0,89,66,43,29.96,29.83,18,5,18,0.00
2013-3-22,74.2,69.1,61.3,69.0,58.0,50.0,85,68,57,30.03,29.91,17,7,17,0.02
2013-3-23,78.8,75.7,72.3,73.0,70.8,68.0,89,85,81,30.00,29.80,19,5,20,0.00
2013-3-24,86.9,78.7,71.1,73.0,69.9,63.0,92,76,51,29.90,29.67,29,9,30,0.54
2013-3-25,78.0,72.8,65.1,72.0,57.5,34.0,92,64,27,29.99,29.75,17,6,17,0.00
2013-3-26,65.0,59.8,53.5,43.0,36.4,27.0,60,43,27,30.22,29.99,22,9,22,0.01
2013-3-27,63.6,56.3,47.6,47.0,40.7,30.0,65,56,44,30.27,30.19,17,6,17,0.00
2013-3-28,67.8,61.5,51.5,51.0,44.2,33.0,73,55,29,30.29,30.18,13,5,14,0.00
2013-3-29,72.3,66.0,57.1,54.0,49.1,40.0,69,55,39,30.31,30.21,17,6,17,0.00
2013-3-30,70.8,68.6,66.7,57.0,50.8,46.0,63,54,43,30.28,30.17,17,8,17,0.00
2013-3-31,75.0,71.9,63.0,66.0,60.8,53.0,78,69,58,30.19,30.05,17,10,19,0.00
2013-4-1,83.6,75.9,72.8,71.0,65.2,56.0,85,71,41,30.06,29.94,21,7,23,0.02
2013-4-2,78.0,72.5,65.9,68.0,64.9,61.0,94,78,61,30.09,29.99,16,6,16,0.00
2013-4-3,77.1,75.4,73.8,70.0,67.0,65.0,81,76,72,30.08,30.00,16,10,17,0.00
2013-4-4,79.0,74.7,68.5,72.0,68.7,64.0,91,82,76,30.05,29.90,22,11,23,0.54
2013-4-5,74.7,69.4,67.1,70.0,64.6,62.0,91,85,76,29.99,29.82,33,7,34,0.54
2013-4-6,75.5,68.9,59.6,65.0,60.4,56.0,89,76,59,30.09,29.91,22,7,22,0.01
2013-4-7,74.5,72.9,71.3,64.0,60.9,58.0,73,66,58,30.15,30.04,22,13,24,0.00
2013-4-8,76.1,74.3,72.8,66.0,60.8,56.0,74,63,56,30.16,30.06,16,8,16,0.00
2013-4-9,76.3,74.7,73.9,67.0,65.7,63.0,77,74,68,30.18,30.06,20,13,20,0.00
2013-4-10,78.1,76.1,74.2,72.0,69.1,66.0,83,79,73,30.12,30.00,20,12,20,0.00
2013-4-11,77.8,76.6,75.5,72.0,70.2,68.0,85,81,78,30.03,29.90,22,15,24,0.00
2013-4-12,80.8,78.5,76.9,75.0,73.0,71.0,87,84,79,29.96,29.87,24,9,24,0.00
2013-4-13,82.3,77.1,72.8,74.0,70.8,66.0,91,81,70,29.98,29.88,16,4,16,0.16
2013-4-14,80.3,78.1,75.2,74.0,72.8,69.0,90,84,78,29.99,29.91,16,8,17,0.00
2013-4-15,81.5,76.1,69.9,75.0,71.0,66.0,91,85,73,30.07,29.94,17,5,17,1.32
2013-4-16,81.6,77.8,73.7,75.0,71.7,68.0,90,82,76,30.14,30.04,16,6,16,0.01
2013-4-17,80.3,77.4,75.3,70.0,66.9,64.0,79,71,62,30.13,30.04,16,6,16,0.00
2013-4-18,80.5,78.5,76.4,72.0,69.6,65.0,81,75,69,30.08,29.99,21,11,21,0.00
2013-4-19,81.3,79.7,77.5,74.0,71.5,68.0,84,76,67,30.07,29.97,22,13,24,0.00
2013-4-20,81.8,77.6,73.6,75.0,71.7,68.0,87,82,75,30.09,29.98,19,6,19,0.09
2013-4-21,79.8,76.7,72.8,73.0,70.5,67.0,91,82,71,30.12,30.00,21,7,25,0.02
2013-4-22,79.3,74.8,70.5,71.0,68.0,65.0,89,80,68,30.06,29.95,25,7,25,0.76
2013-4-23,79.7,76.4,73.5,68.0,64.6,60.0,81,67,57,30.09,29.96,18,7,20,0.00
2013-4-24,79.1,76.2,73.7,65.0,62.0,58.0,68,62,57,30.15,30.04,19,9,20,0.00
2013-4-25,79.3,76.0,74.2,64.0,61.1,59.0,69,60,52,30.21,30.09,20,8,20,0.00
2013-4-26,79.3,75.9,73.4,66.0,63.3,59.0,72,65,59,30.24,30.12,17,8,17,0.00
2013-4-27,78.3,75.9,74.5,67.0,63.1,60.0,73,65,56,30.22,30.09,24,12,24,0.00
2013-4-28,77.4,75.9,74.0,66.0,62.8,59.0,71,64,55,30.13,30.00,24,14,24,0.00
2013-4-29,79.2,77.2,75.6,71.0,66.6,61.0,79,70,60,30.05,29.94,19,12,20,0.00
2013-4-30,79.7,75.9,67.1,73.0,68.8,64.0,93,79,68,30.02,29.93,20,6,23,2.26
2013-5-1,79.7,75.8,70.1,72.0,69.2,66.0,91,80,72,30.02,29.93,18,5,18,0.25
2013-5-2,77.0,74.2,68.9,72.0,69.1,66.0,93,85,77,29.97,29.80,35,15,35,13.38
2013-5-3,81.5,73.9,67.4,71.0,67.8,64.0,94,82,59,29.83,29.68,30,8,32,4.57
2013-5-4,83.9,75.7,69.1,69.0,66.5,63.0,93,75,51,29.80,29.69,17,7,20,0.01
2013-5-5,79.5,73.7,68.4,67.0,61.4,49.0,92,68,37,29.94,29.75,17,6,17,0.00
2013-5-6,78.9,72.2,63.2,63.0,58.9,50.0,84,64,50,30.02,29.92,14,5,14,0.00
2013-5-7,81.3,72.0,63.4,66.0,58.5,54.0,75,63,43,30.07,29.98,18,7,18,0.00
2013-5-8,78.2,72.6,63.2,65.0,60.9,56.0,88,68,50,30.16,30.04,10,5,10,0.00
2013-5-9,81.2,76.4,69.0,72.0,66.6,60.0,80,72,61,30.16,30.06,14,6,14,0.00
2013-5-10,79.8,78.7,77.1,72.0,70.9,69.0,81,77,71,30.15,30.07,14,7,14,0.00
2013-5-13,84.3,79.5,76.9,71.0,66.4,63.0,75,65,51,30.10,30.03,16,6,18,0.00
2013-5-14,78.2,76.1,74.2,66.0,59.4,54.0,68,57,47,30.19,30.08,15,7,16,0.00
2013-5-15,78.3,75.6,74.3,65.0,60.2,54.0,69,59,50,30.21,30.10,22,12,22,0.11
2013-5-16,78.2,75.9,73.9,66.0,60.7,57.0,70,60,55,30.13,30.04,20,9,20,0.00
2013-5-17,79.8,77.6,74.8,72.0,68.2,61.0,81,73,61,30.10,30.02,19,10,20,0.01
2013-5-18,80.7,78.5,76.0,73.0,70.4,68.0,83,77,71,30.12,30.04,19,8,19,0.00
2013-5-19,80.9,78.8,77.5,71.0,68.7,66.0,77,71,64,30.12,30.01,17,8,17,0.00
2013-5-20,79.6,76.8,69.5,73.0,70.4,66.0,93,81,74,30.10,29.99,17,8,17,4.20
2013-5-21,78.7,75.6,69.1,72.0,69.3,65.0,94,81,69,30.09,29.94,25,10,25,1.42
2013-5-22,79.1,77.4,73.8,73.0,70.5,66.0,85,80,70,29.99,29.91,19,8,19,0.01
2013-5-23,88.8,80.1,74.5,76.0,71.4,62.0,92,76,43,30.02,29.91,17,6,19,0.00
2013-5-24,85.1,80.9,75.9,76.0,72.2,68.0,88,76,63,30.06,29.95,17,5,20,0.26
2013-5-25,82.4,79.7,77.0,73.0,67.3,63.0,82,66,54,30.18,30.05,18,7,18,0.00
2013-5-26,81.0,78.2,75.7,68.0,64.4,57.0,71,63,52,30.20,30.12,20,10,22,0.00
2013-5-27,80.6,78.3,76.6,72.0,68.3,60.0,80,72,57,30.20,30.08,27,15,28,1.12
2013-5-28,80.2,78.2,74.0,73.0,71.0,69.0,88,79,75,30.13,30.06,29,17,31,0.60
2013-5-29,80.0,78.0,72.7,74.0,70.9,67.0,88,79,71,30.11,30.03,30,18,31,1.51
2013-5-30,79.7,78.1,74.6,73.0,70.6,66.0,88,78,70,30.10,30.01,36,22,36,10.09
2013-5-31,80.0,78.0,74.3,74.0,72.0,69.0,90,82,76,30.09,30.01,32,19,32,1.84
2013-6-1,81.2,78.6,75.9,74.0,73.1,71.0,88,84,77,30.05,29.98,22,9,23,0.01
2013-6-2,83.6,78.7,75.0,76.0,72.8,70.0,89,83,71,30.03,29.93,17,4,19,0.00
2013-6-3,82.9,78.8,75.1,75.0,72.5,70.0,89,82,71,30.05,29.93,13,4,14,0.24
2013-6-4,82.9,78.9,74.8,75.0,72.7,71.0,89,82,75,30.07,29.97,17,4,17,0.18
2013-6-5,81.6,80.8,80.0,76.0,74.5,72.0,85,81,77,30.04,29.91,19,11,19,0.03
2013-6-6,83.3,79.8,74.9,78.0,74.4,68.0,92,84,78,29.94,29.78,35,11,36,1.26
2013-6-7,87.4,77.8,74.5,76.0,72.3,71.0,92,84,64,30.00,29.85,18,4,18,0.66
2013-6-8,81.7,77.9,73.9,77.0,74.1,70.0,93,89,79,30.13,29.99,28,4,28,2.54
2013-6-9,83.0,81.0,78.9,76.0,73.5,70.0,87,79,71,30.14,30.05,20,12,20,0.01
2013-6-10,83.6,81.5,80.2,77.0,74.6,73.0,83,80,75,30.11,30.02,18,10,18,0.00
2013-6-11,86.1,81.6,78.6,77.0,74.9,72.0,87,81,67,30.10,30.02,18,8,19,0.13
2013-6-12,83.7,81.2,79.9,78.0,75.2,73.0,86,82,78,30.10,30.03,12,4,13,0.00
2013-6-13,84.1,80.4,76.7,76.0,73.4,69.0,93,80,67,30.07,29.95,16,5,16,0.00
2013-6-14,90.0,81.1,76.6,76.0,71.6,67.0,90,74,51,29.99,29.89,19,6,19,0.00
2013-6-15,85.9,81.3,76.6,76.0,73.4,69.0,89,78,68,30.07,29.93,13,6,14,0.00
2013-6-16,85.0,82.6,80.3,76.0,74.4,71.0,83,77,70,30.11,30.04,16,7,16,0.00
2013-6-17,85.7,83.2,81.7,76.0,74.7,73.0,80,76,68,30.11,30.03,16,8,16,0.00
2013-6-18,85.5,83.4,81.7,76.0,74.5,73.0,79,75,70,30.09,30.00,16,8,16,0.00
2013-6-19,85.7,82.9,79.4,77.0,74.6,72.0,86,77,69,30.07,30.00,16,6,16,0.00
2013-6-20,85.5,82.1,77.5,76.0,72.7,67.0,79,74,68,30.11,30.03,20,6,22,0.00
2013-6-21,85.0,83.1,80.9,75.0,72.9,71.0,80,72,66,30.14,30.04,19,9,19,0.00
2013-6-22,85.0,82.7,80.9,75.0,72.4,70.0,77,72,63,30.13,30.05,17,10,17,0.00
2013-6-23,84.7,82.3,77.1,75.0,73.0,68.0,81,74,67,30.14,30.06,24,12,25,0.35
2013-6-24,84.3,82.6,81.1,74.0,72.5,70.0,75,72,68,30.18,30.07,20,13,21,0.01
2013-6-25,85.2,82.4,80.1,76.0,73.9,70.0,80,76,68,30.13,30.05,19,11,19,0.00
2013-6-26,84.6,82.6,79.8,76.0,73.7,71.0,84,75,69,30.09,30.01,19,10,19,0.05
2013-6-27,85.0,81.5,76.6,76.0,73.3,69.0,83,77,70,30.07,29.96,14,5,14,0.14
2013-6-28,84.8,80.8,73.6,76.0,73.5,69.0,92,79,68,30.00,29.87,19,5,20,1.64
2013-6-29,85.1,80.2,75.1,76.0,73.5,68.0,90,80,68,29.94,29.82,17,5,17,0.02
2013-6-30,86.8,80.5,75.4,77.0,73.5,68.0,90,80,60,29.96,29.85,22,4,22,0.19
2013-7-1,84.0,81.9,77.6,77.0,74.5,68.0,89,79,65,30.04,29.92,27,8,28,0.05
2013-7-2,84.3,82.3,79.8,77.0,75.2,72.0,83,79,73,30.12,29.98,19,9,20,0.01
2013-7-3,83.5,81.1,76.5,76.0,74.0,70.0,87,80,74,30.14,30.06,28,12,29,0.28
2013-7-4,83.1,81.8,77.8,76.0,74.0,71.0,85,78,74,30.16,30.07,27,13,27,0.16
2013-7-5,83.2,81.7,77.0,76.0,73.8,71.0,84,77,70,30.16,30.06,30,15,32,0.15
2013-7-6,83.9,81.9,78.0,75.0,73.0,69.0,82,75,70,30.13,30.04,23,14,25,0.19
2013-7-7,84.0,82.2,80.4,75.0,73.3,71.0,81,75,69,30.11,30.03,22,13,23,0.20
2013-7-8,85.3,82.3,80.9,74.0,72.5,71.0,78,73,66,30.16,30.08,17,10,17,0.00
2013-7-9,84.0,81.0,75.3,75.0,71.6,68.0,85,73,67,30.15,30.05,16,6,16,0.09
2013-7-10,82.1,78.7,72.6,74.0,71.7,68.0,88,80,72,30.09,30.00,22,8,25,0.45
2013-7-11,84.8,81.8,79.1,76.0,73.5,69.0,83,76,68,30.06,29.95,14,6,15,0.00
2013-7-12,87.2,80.5,72.5,76.0,73.0,68.0,89,79,64,29.98,29.91,25,3,26,0.75
2013-7-13,82.6,77.2,73.4,76.0,72.2,70.0,92,85,75,30.04,29.92,22,3,25,0.75
2013-7-14,83.8,79.0,73.7,74.0,72.2,70.0,92,80,67,30.10,29.99,22,7,22,0.09
2013-7-15,84.7,80.2,74.2,75.0,72.1,69.0,89,77,64,30.10,30.02,24,7,24,0.12
2013-7-16,82.0,79.1,73.4,75.0,71.3,67.0,88,78,70,30.16,30.06,36,15,38,2.75
2013-7-17,81.0,79.5,75.3,73.0,71.6,68.0,86,77,70,30.14,30.05,24,12,25,0.10
2013-7-18,82.0,77.8,73.2,75.0,71.7,67.0,89,82,73,30.14,30.06,23,7,24,0.44
2013-7-19,83.7,81.1,74.6,77.0,74.2,70.0,90,80,72,30.14,30.05,16,8,16,0.09
2013-7-20,84.2,82.1,78.4,77.0,75.2,71.0,84,80,74,30.13,30.04,18,9,19,0.00
2013-7-21,84.6,81.2,76.2,77.0,74.8,69.0,89,81,76,30.17,30.05,14,4,14,0.13
2013-7-22,84.7,82.6,79.6,76.0,74.1,71.0,82,76,70,30.16,30.07,16,8,16,0.00
2013-7-23,85.7,82.5,78.8,77.0,74.6,70.0,85,78,63,30.11,29.98,17,5,17,0.01
2013-7-24,91.2,83.9,78.1,76.0,71.6,61.0,87,68,38,30.02,29.91,17,8,19,0.00
2013-7-25,90.4,83.7,77.8,75.0,72.5,69.0,85,70,53,30.02,29.91,19,8,19,0.00
2013-7-26,88.9,82.3,79.2,76.0,73.7,69.0,84,76,54,30.02,29.94,19,7,19,0.00
2013-7-27,84.6,80.1,77.0,77.0,73.7,72.0,87,81,76,30.01,29.93,16,4,19,0.00
2013-7-28,84.0,80.2,75.3,76.0,73.7,69.0,87,81,73,30.07,29.95,17,4,17,0.47
2013-7-29,85.7,82.5,78.8,77.0,74.6,72.0,87,78,70,30.15,30.02,18,6,19,0.00
2013-7-30,85.3,83.5,78.4,77.0,75.6,69.0,82,77,71,30.17,30.08,15,9,16,0.02
2013-7-31,85.7,84.0,82.7,77.0,74.5,72.0,81,74,68,30.13,30.01,16,10,17,0.00
2013-8-1,85.2,83.0,79.7,75.0,72.8,70.0,78,72,64,30.06,29.95,24,11,24,0.00
2013-8-2,87.6,80.4,75.5,76.0,72.2,65.0,86,77,63,30.06,29.92,17,6,17,0.21
2013-8-3,84.8,79.1,73.3,77.0,73.2,67.0,88,82,70,30.13,30.02,20,4,21,0.58
2013-8-4,86.6,80.4,72.7,77.0,73.2,70.0,92,79,69,30.12,29.98,36,4,37,1.55
2013-8-5,87.5,80.5,77.2,79.0,74.0,70.0,90,81,66,30.05,29.95,18,4,18,0.26
2013-8-6,86.0,81.5,77.0,77.0,74.1,71.0,89,79,71,29.98,29.90,10,4,10,0.00
2013-8-7,85.1,83.3,79.4,77.0,74.7,72.0,81,76,69,29.99,29.90,24,8,24,0.05
2013-8-8,85.8,84.0,82.1,76.0,74.5,72.0,79,74,66,30.02,29.93,19,12,19,0.00
2013-8-9,84.9,82.9,79.9,76.0,73.1,70.0,82,73,66,30.07,29.95,21,11,21,0.01
2013-8-10,85.4,83.4,81.7,76.0,74.8,73.0,80,76,72,30.12,30.03,15,10,16,0.00
2013-8-11,85.7,83.6,82.0,77.0,74.8,73.0,80,75,69,30.14,30.07,16,10,16,0.00
2013-8-12,87.5,83.9,82.0,76.0,73.7,71.0,77,72,65,30.11,30.01,16,8,17,0.00
2013-8-13,85.8,84.0,82.2,76.0,74.3,72.0,79,73,68,30.05,29.95,16,8,16,0.00
2013-8-14,86.1,83.8,80.6,76.0,73.9,72.0,82,73,66,30.03,29.93,16,7,16,0.00
2013-8-15,84.1,81.4,76.3,77.0,73.8,71.0,89,79,69,30.06,29.96,22,6,24,0.10
2013-8-16,82.6,82.3,79.7,76.0,74.8,71.0,81,79,78,30.06,30.04,9,4,11,0.00
2013-11-5,80.0,78.8,78.0,71.0,69.4,68.0,78,73,70,30.09,30.04,33,21,33,2.99
2013-11-6,80.0,78.6,77.0,70.0,67.7,65.0,75,70,63,30.08,30.00,30,12,30,0.02
2013-11-7,83.0,77.2,72.0,73.0,69.1,66.0,89,77,65,30.03,29.93,13,4,13,0.00
2013-11-8,82.0,76.9,72.0,73.0,69.4,66.0,89,78,62,30.05,29.94,26,8,27,0.34
2013-11-9,79.0,77.3,75.0,72.0,69.8,68.0,87,78,74,30.12,30.01,31,15,32,0.37
2013-11-10,81.6,78.7,77.0,71.0,69.2,66.0,78,73,67,30.17,30.05,23,10,23,0.00
2013-11-11,80.3,78.4,77.4,71.0,67.4,63.0,75,69,62,30.22,30.05,21,10,22,0.00
2013-11-12,82.0,78.4,74.8,69.0,66.5,63.0,78,67,57,30.16,29.96,17,5,17,0.00
2013-11-13,76.4,73.0,70.2,67.0,62.2,54.0,86,69,57,30.23,30.00,32,9,32,0.30
2013-11-14,74.8,72.6,70.2,62.0,58.3,54.0,69,61,55,30.31,30.14,31,17,32,0.00
2013-11-15,78.8,76.6,74.2,69.0,65.1,59.0,72,68,62,30.21,30.04,30,18,32,0.00
2013-11-16,80.0,78.1,72.4,72.0,68.6,65.0,83,73,64,30.16,30.02,25,13,26,0.13
2013-11-17,81.0,79.3,78.0,72.0,69.9,68.0,79,73,67,30.10,30.01,26,12,26,0.01
2013-11-18,81.0,78.5,74.5,72.0,70.3,69.0,86,76,71,30.11,29.92,12,4,12,0.00
2013-11-19,80.9,76.1,73.4,73.0,70.3,68.0,88,83,72,30.02,29.86,14,4,14,0.13
2013-11-20,80.8,75.9,70.2,73.0,70.1,67.0,92,83,71,30.10,29.92,17,5,17,0.01
2013-11-21,79.0,77.1,72.0,73.0,70.4,68.0,90,80,73,30.30,30.04,31,14,32,2.62
2013-11-22,79.0,77.6,76.8,71.0,68.6,67.0,79,74,70,30.33,30.07,28,15,28,3.07
2013-11-23,79.2,77.6,76.4,70.0,68.1,65.0,79,73,68,30.10,29.98,20,9,21,0.00
2013-11-24,78.7,74.5,70.3,69.0,66.2,63.0,89,76,64,30.20,29.99,26,8,26,0.37
2013-11-25,75.3,73.1,70.9,68.0,63.6,58.0,80,73,62,30.34,30.05,34,21,35,3.88
2013-11-26,80.8,77.8,73.7,74.0,71.2,67.0,85,81,76,30.07,29.82,34,14,36,0.44
2013-11-27,103.9,71.9,45.1,99.9,62.9,-99.9,100,77,4,32.77,25.56,28,9,28,0.39
2013-11-28,71.7,71.7,71.6,56.0,56.0,55.0,58,58,57,30.30,28.90,10,5,12,0.39
2013-11-30,77.0,75.0,66.7,70.0,63.8,61.0,89,69,61,30.27,30.10,31,11,31,0.76
2013-12-1,99.3,73.0,46.9,83.0,65.3,-99.9,94,78,13,32.77,24.70,21,9,21,0.96
2013-12-2,70.5,67.1,63.9,64.0,61.8,59.0,95,83,69,30.02,29.83,15,5,16,0.00
2013-12-3,76.5,70.6,63.2,65.0,61.8,57.0,92,75,54,30.11,29.90,11,4,12,0.00
2013-12-4,79.5,74.7,68.3,68.0,64.7,62.0,86,72,60,30.21,29.99,13,5,13,0.00
2013-12-5,79.6,77.9,75.1,71.0,67.6,64.0,83,71,65,30.30,30.08,19,9,19,0.08
2013-12-6,79.5,78.0,77.2,70.0,67.8,65.0,78,71,64,30.36,30.09,22,11,22,0.00
2013-12-7,79.8,75.4,71.1,72.0,68.3,65.0,90,79,65,30.36,30.15,24,6,24,0.35
2013-12-8,79.4,78.0,75.2,71.0,68.3,65.0,83,72,66,30.35,30.13,25,12,28,0.01
2013-12-9,79.9,78.3,77.2,70.0,67.2,62.0,77,69,56,30.34,30.11,22,11,22,0.00
2013-12-10,80.6,78.4,76.7,72.0,69.6,68.0,79,75,70,30.31,30.08,17,7,17,0.00
2013-12-11,81.5,77.5,72.4,73.0,69.6,65.0,90,77,61,30.38,30.12,11,5,12,0.00
2013-12-12,78.2,73.1,71.4,70.0,64.9,58.0,92,76,60,30.40,30.14,22,6,24,0.00
2013-12-13,75.1,73.2,71.3,67.0,61.7,56.0,77,68,59,30.29,30.10,30,15,32,0.70
2013-12-14,78.7,77.4,74.2,72.0,69.2,66.0,80,76,73,30.12,30.00,29,13,30,0.15
2013-12-15,81.0,76.3,71.5,73.0,69.9,65.0,88,81,71,30.07,29.93,25,4,26,0.02
2013-12-16,72.0,67.4,62.0,66.0,59.7,57.0,87,77,67,30.23,30.04,13,4,14,0.00
2013-12-17,75.2,68.1,59.8,63.0,58.1,55.0,90,72,56,30.29,30.11,12,4,13,0.00
2013-12-18,72.3,66.9,61.7,60.0,56.9,53.0,86,71,54,30.35,30.14,17,4,17,0.00
2013-12-19,75.2,72.9,64.2,64.0,59.1,55.0,78,62,56,30.30,30.16,22,12,22,0.01
2013-12-20,78.1,76.5,74.6,70.0,65.4,59.0,79,69,58,30.24,30.10,22,13,23,0.08
2013-12-21,79.1,78.0,76.4,72.0,69.8,67.0,80,76,71,30.15,30.06,23,14,24,0.00
2013-12-22,79.3,78.3,77.3,72.0,70.7,69.0,81,78,72,30.17,30.07,25,14,26,0.07
2013-12-23,79.6,77.9,73.9,72.0,70.6,68.0,85,79,75,30.23,30.11,21,10,22,0.00
2013-12-24,79.9,72.5,68.3,71.0,66.2,61.0,92,81,65,30.23,30.10,20,6,21,0.00
2013-12-25,74.7,73.0,70.9,67.0,64.1,62.0,83,74,70,30.18,30.11,25,11,25,0.02
2013-12-26,76.5,75.2,73.2,69.0,67.4,65.0,82,77,73,30.23,30.07,20,10,21,0.00
2013-12-27,78.5,76.3,73.5,70.0,68.1,66.0,83,76,72,30.24,30.09,24,10,24,0.08
2013-12-28,77.9,76.5,74.5,72.0,68.7,66.0,85,77,71,30.18,30.03,30,19,32,0.08
2013-12-29,80.5,77.6,74.3,73.0,71.5,69.0,91,82,73,30.04,29.92,30,9,30,0.07
2013-12-30,75.3,72.2,69.2,71.0,67.9,64.0,93,87,79,30.15,29.98,13,4,13,0.04
2013-12-31,76.5,73.2,68.5,67.0,63.5,62.0,83,72,63,30.27,30.10,24,8,25,0.01
2014-1-1,78.4,76.2,73.1,72.0,68.8,62.0,82,78,67,30.21,30.05,28,14,28,0.72
2014-1-2,84.3,77.9,73.0,72.0,67.4,63.0,85,71,51,30.06,29.87,17,6,19,0.00